Terminal Aerodrome Forecast
Issued by NWS

Home | Current Version | Previous Version | Graphics & Text | Print | Product List | Glossary On
Versions: 1 2 3 4 5 6 7 8 9 10 11 12 13 14 15 16 17 18 19 20
000
FTUS43 KMPX 221740
TAFAXN
TAF
KAXN 221740Z 2218/2318 15012KT P6SM OVC050
     FM222300 12010KT 1 1/2SM -SN BR VV015
     FM230100 12009KT 1/2SM SN FZFG VV005
     FM230900 VRB03KT 6SM -SHSN OVC008
     FM231100 30005KT P6SM OVC012
     FM231600 31010KT P6SM BKN035=

USA.gov is the U.S. government's official web portal to all federal, state and local government web resources and services.